Time;durP1;ratioP1;P1;durP2;ratioP2;P2;SDS_P1;SDS_P2;PMS_P1;PMS_P2;Temp;Humidity;BMP_temperature;BMP_pressure;BME280_temperature;BME280_humidity;BME280_pressure;Samples;Min_cycle;Max_cycle;Signal;HPM_P1;HPM_P2
2022/06/06 00:00:44;;;;;;;2.78;2.17;;;13.90;99.90;;;13.53;100.00;97378.22;4987408;28;20613;-43
2022/06/06 00:03:11;;;;;;;3.42;2.42;;;13.80;99.90;;;13.49;100.00;97371.31;4988419;28;20018;-42
2022/06/06 00:05:36;;;;;;;3.97;2.35;;;13.80;99.90;;;13.46;100.00;97386.50;4986814;28;20274;-42
2022/06/06 00:08:05;;;;;;;3.05;2.30;;;13.80;99.90;;;13.43;100.00;97374.28;4982178;28;20018;-46
2022/06/06 00:10:31;;;;;;;2.25;2.05;;;13.80;99.90;;;13.43;100.00;97371.63;4989503;28;20027;-43
2022/06/06 00:12:57;;;;;;;2.63;2.40;;;13.80;99.90;;;13.42;100.00;97377.84;4988503;28;20022;-42
2022/06/06 00:15:22;;;;;;;2.92;2.40;;;13.80;99.90;;;13.42;100.00;97377.84;4982311;28;20029;-43
2022/06/06 00:17:48;;;;;;;6.07;2.58;;;13.70;99.90;;;13.43;100.00;97369.00;4988156;28;20022;-44
2022/06/06 00:20:16;;;;;;;3.95;2.38;;;13.70;99.90;;;13.41;100.00;97375.31;4987151;28;20030;-44
2022/06/06 00:22:42;;;;;;;3.53;2.55;;;13.80;99.90;;;13.39;100.00;97364.78;4987945;28;20707;-44
2022/06/06 00:25:09;;;;;;;3.38;2.30;;;13.70;99.90;;;13.35;100.00;97366.72;4996087;28;20035;-43
2022/06/06 00:27:35;;;;;;;3.60;2.75;;;13.70;99.90;;;13.30;100.00;97360.75;4987579;28;20065;-43
2022/06/06 00:30:01;;;;;;;2.75;2.42;;;13.70;99.90;;;13.32;100.00;97368.66;4987243;28;20658;-46
2022/06/06 00:35:11;;;;;;;3.25;2.40;;;13.60;99.90;;;13.24;100.00;97352.25;4983201;28;20033;-42
2022/06/06 00:37:42;;;;;;;3.58;2.30;;;13.60;99.90;;;13.28;100.00;97354.69;4987941;28;20030;-42
2022/06/06 00:40:11;;;;;;;6.07;2.80;;;13.60;99.90;;;13.29;100.00;97359.03;4985415;28;20034;-43
2022/06/06 00:42:39;;;;;;;7.13;2.67;;;13.60;99.90;;;13.27;100.00;97362.69;4986752;28;20038;-43
2022/06/06 00:45:25;;;;;;;3.33;2.35;;;13.60;99.90;;;13.26;100.00;97355.66;4986606;28;20022;-43
2022/06/06 00:48:00;;;;;;;5.65;2.67;;;13.60;99.90;;;13.23;100.00;97355.84;4987415;28;20030;-43
2022/06/06 00:50:48;;;;;;;6.20;2.60;;;13.60;99.90;;;13.18;100.00;97338.34;4986358;28;20031;-43
2022/06/06 00:53:19;;;;;;;5.25;3.55;;;13.50;99.90;;;13.24;100.00;97347.78;4985478;28;20027;-43
2022/06/06 00:55:52;;;;;;;4.35;2.72;;;13.60;99.90;;;13.24;100.00;97341.66;5001179;28;20097;-44
2022/06/06 00:58:22;;;;;;;3.65;2.80;;;13.60;99.90;;;13.21;100.00;97347.97;4986872;28;20030;-43
2022/06/06 01:00:49;;;;;;;3.17;2.88;;;13.50;99.90;;;13.23;100.00;97353.19;5002034;28;20493;-44
2022/06/06 01:03:19;;;;;;;3.67;2.65;;;13.60;99.90;;;13.21;100.00;97344.44;4988043;28;20110;-44
2022/06/06 01:09:26;;;;;;;3.65;2.63;;;13.50;99.90;;;13.17;100.00;97341.97;4961747;28;20042;-44
2022/06/06 01:11:59;;;;;;;3.08;2.50;;;13.50;99.90;;;13.15;100.00;97335.88;4966234;28;20034;-43
2022/06/06 01:14:28;;;;;;;;;;;13.50;99.90;;;13.10;100.00;97342.31;4987708;28;20073;-43
2022/06/06 01:17:03;;;;;;;5.32;2.83;;;13.50;99.90;;;13.11;100.00;97336.94;4985428;28;19917;-42
2022/06/06 01:20:02;;;;;;;3.70;3.13;;;13.50;99.90;;;13.11;100.00;97338.75;4987270;28;20030;-43
2022/06/06 01:22:32;;;;;;;5.55;3.13;;;13.40;99.90;;;13.11;100.00;97331.66;4986242;28;20109;-47
2022/06/06 01:25:42;;;;;;;3.60;2.90;;;13.50;99.90;;;13.10;100.00;97337.88;4984163;28;20545;-45
2022/06/06 01:29:00;;;;;;;3.38;2.97;;;13.40;99.90;;;13.07;100.00;97330.09;4985280;28;20485;-45
2022/06/06 01:32:14;;;;;;;3.45;2.95;;;13.40;99.90;;;13.06;100.00;97335.44;4985380;28;20038;-44
2022/06/06 01:34:43;;;;;;;3.92;3.20;;;13.40;99.90;;;13.08;100.00;97325.63;4957497;28;20053;-43
2022/06/06 01:37:35;;;;;;;3.55;2.92;;;13.40;99.90;;;13.06;100.00;97322.22;4988094;28;20101;-45
2022/06/06 01:40:07;;;;;;;7.00;3.20;;;13.40;99.90;;;13.06;100.00;97312.47;4986314;28;20766;-43
2022/06/06 01:43:00;;;;;;;4.10;2.90;;;13.40;99.90;;;13.05;100.00;97307.28;4985312;28;20031;-46
2022/06/06 01:45:57;;;;;;;3.65;3.10;;;13.40;99.90;;;13.05;100.00;97308.13;4997825;28;20049;-46
2022/06/06 01:48:29;;;;;;;4.55;3.15;;;13.40;99.90;;;13.05;100.00;97307.28;4987682;28;20070;-46
2022/06/06 01:50:55;;;;;;;4.18;3.25;;;13.40;99.90;;;13.02;100.00;97305.63;4988717;28;20455;-45
2022/06/06 01:53:23;;;;;;;4.00;3.00;;;13.40;99.90;;;12.96;100.00;97303.28;4988393;28;20034;-44
2022/06/06 01:55:52;;;;;;;5.18;3.00;;;13.40;99.90;;;12.96;100.00;97300.63;4987708;28;20034;-43
2022/06/06 01:58:26;;;;;;;5.93;3.33;;;13.30;99.90;;;12.94;100.00;97307.78;4991319;28;20022;-46
2022/06/06 02:00:52;;;;;;;3.75;2.83;;;13.30;99.90;;;12.94;100.00;97307.78;4988967;28;20447;-46
2022/06/06 02:03:19;;;;;;;3.05;2.63;;;13.30;99.90;;;12.90;100.00;97304.44;4991124;28;20370;-46
2022/06/06 02:05:45;;;;;;;6.72;3.22;;;13.30;99.90;;;12.86;100.00;97302.00;4990157;28;20027;-45
2022/06/06 02:08:12;;;;;;;3.67;2.97;;;13.20;99.90;;;12.85;100.00;97303.78;4984254;28;20039;-45
2022/06/06 02:10:39;;;;;;;6.65;3.10;;;13.20;99.90;;;12.80;100.00;97298.72;4988917;28;20077;-43
2022/06/06 02:13:05;;;;;;;4.55;2.80;;;13.20;99.90;;;12.76;100.00;97301.59;4990552;28;20057;-44
2022/06/06 02:15:31;;;;;;;3.20;2.90;;;13.10;99.90;;;12.80;100.00;97306.66;4986071;28;20669;-44
2022/06/06 02:17:58;;;;;;;4.65;3.60;;;13.10;99.90;;;12.77;100.00;97296.19;4991054;28;20031;-45
2022/06/06 02:20:27;;;;;;;5.70;3.15;;;13.10;99.90;;;12.76;100.00;97306.88;4989036;28;20041;-45
2022/06/06 02:22:53;;;;;;;7.55;3.58;;;13.10;99.90;;;12.75;100.00;97306.00;4990252;28;20048;-42
2022/06/06 02:25:20;;;;;;;4.20;3.10;;;13.10;99.90;;;12.75;100.00;97303.34;4989883;28;20038;-44
2022/06/06 02:27:46;;;;;;;3.55;2.97;;;13.10;99.90;;;12.73;100.00;97302.56;4990664;28;20026;-45
2022/06/06 02:30:23;;;;;;;5.15;3.88;;;13.10;99.90;;;12.78;100.00;97292.63;4989823;28;20101;-43
2022/06/06 02:32:49;;;;;;;4.97;3.70;;;13.10;99.90;;;12.80;100.00;97295.22;4986728;28;20030;-46
2022/06/06 02:35:19;;;;;;;4.13;3.53;;;13.10;99.90;;;12.78;100.00;97292.63;4989600;28;20493;-43
2022/06/06 02:37:46;;;;;;;5.20;3.53;;;13.10;99.90;;;12.75;100.00;97289.28;4989627;28;20577;-50
2022/06/06 02:40:15;;;;;;;5.40;3.35;;;13.10;99.90;;;12.79;100.00;97297.00;4986823;28;20078;-45
2022/06/06 02:42:42;;;;;;;3.33;3.00;;;13.10;99.90;;;12.77;100.00;97290.06;4987398;28;20161;-45
2022/06/06 02:45:09;;;;;;;4.07;3.67;;;13.10;99.90;;;12.80;100.00;97295.22;4994852;28;20027;-44
2022/06/06 02:47:37;;;;;;;4.75;3.97;;;13.20;99.90;;;12.86;100.00;97294.91;4984521;28;20023;-44
2022/06/06 02:50:06;;;;;;;4.47;3.75;;;13.20;99.90;;;12.87;100.00;97295.78;4989579;28;20109;-45
2022/06/06 02:52:33;;;;;;;3.70;3.40;;;13.20;99.90;;;12.88;100.00;97298.34;4989088;28;20033;-43
2022/06/06 02:55:00;;;;;;;5.18;3.67;;;13.20;99.90;;;12.89;100.00;97304.50;4989459;28;20108;-45
2022/06/06 02:57:26;;;;;;;4.75;3.40;;;13.20;99.90;;;12.82;100.00;97293.34;4988690;28;20030;-47
2022/06/06 02:59:54;;;;;;;4.82;3.65;;;13.20;99.90;;;12.92;100.00;97299.03;4988863;28;20487;-46
2022/06/06 03:02:20;;;;;;;7.25;3.83;;;13.20;99.90;;;12.88;100.00;97305.41;4989738;28;20039;-46
2022/06/06 03:04:45;;;;;;;5.22;3.15;;;13.20;99.90;;;12.85;100.00;97314.38;4988392;28;20399;-47
2022/06/06 03:10:34;;;;;;;5.18;3.60;;;13.20;99.90;;;12.80;100.00;97327.81;5018078;28;20042;-47
2022/06/06 03:13:37;;;;;;;4.97;3.17;;;13.20;99.90;;;12.76;100.00;97330.69;5028690;28;20095;-47
2022/06/06 03:23:38;;;;;;;4.20;3.47;;;13.10;99.90;;;12.65;100.00;97344.41;5002279;28;20032;-46
2022/06/06 03:26:48;;;;;;;4.07;3.28;;;13.10;99.90;;;12.64;100.00;97347.13;5008401;28;20336;-46
2022/06/06 03:29:55;;;;;;;4.55;3.17;;;13.00;99.90;;;12.64;100.00;97355.06;4976419;28;20292;-48
2022/06/06 03:33:08;;;;;;;4.43;3.88;;;13.00;99.90;;;12.65;100.00;97357.66;5003716;28;20036;-47
2022/06/06 03:36:03;;;;;;;5.32;3.80;;;13.00;99.90;;;12.68;100.00;97354.00;5001238;28;20037;-47
2022/06/06 03:38:46;;;;;;;5.32;3.50;;;13.00;99.90;;;12.69;100.00;97356.56;5008881;28;20409;-47
2022/06/06 03:41:49;;;;;;;;;;;13.00;99.90;;;12.70;100.00;97358.28;5003797;28;20022;-48
2022/06/06 03:44:33;;;;;;;4.30;3.35;;;13.10;99.90;;;12.71;100.00;97359.16;5007982;28;19913;-47
2022/06/06 03:47:27;;;;;;;4.82;3.50;;;13.10;99.90;;;12.69;100.00;97359.22;5007340;28;20026;-46
2022/06/06 03:50:20;;;;;;;3.97;3.58;;;13.00;99.90;;;12.70;100.00;97355.63;5008339;28;20041;-47
2022/06/06 03:53:02;;;;;;;6.07;2.80;;;13.10;99.90;;;12.71;100.00;97354.72;5000971;28;20033;-51
2022/06/06 03:56:05;;;;;;;3.40;3.10;;;13.10;99.90;;;12.72;100.00;97360.84;5006799;28;20029;-46
2022/06/06 03:58:33;;;;;;;5.65;3.90;;;13.10;99.90;;;12.76;100.00;97363.31;5007920;28;20030;-46
2022/06/06 04:01:08;;;;;;;4.55;3.90;;;13.10;99.90;;;12.79;100.00;97371.09;5008128;28;20127;-49
2022/06/06 04:03:35;;;;;;;5.45;3.70;;;13.20;99.90;;;12.83;100.00;97357.72;5002681;28;20490;-47
2022/06/06 04:06:05;;;;;;;4.40;3.47;;;13.20;99.90;;;12.85;100.00;97356.72;5006081;28;20037;-46
2022/06/06 04:08:32;;;;;;;8.77;3.58;;;13.20;99.90;;;12.91;100.00;97358.22;5002979;28;20026;-47
2022/06/06 04:11:09;;;;;;;4.70;3.70;;;13.20;99.90;;;12.96;100.00;97354.41;5007383;28;20022;-46
2022/06/06 04:14:05;;;;;;;4.03;3.22;;;13.30;99.90;;;12.98;100.00;97352.56;5004307;28;20112;-48
2022/06/06 04:17:20;;;;;;;4.05;3.50;;;13.40;99.90;;;13.09;100.00;97364.44;5006368;28;20057;-46
2022/06/06 04:20:16;;;;;;;4.22;3.53;;;13.40;99.90;;;13.15;100.00;97366.78;4997405;28;20045;-47
2022/06/06 04:23:42;;;;;;;4.00;3.38;;;13.50;99.90;;;13.24;100.00;97371.63;5006845;28;20029;-46
2022/06/06 04:26:28;;;;;;;4.20;3.70;;;13.60;99.90;;;13.34;100.00;97369.44;4996391;28;20029;-47
2022/06/06 04:29:04;;;;;;;4.07;3.20;;;13.70;99.90;;;13.44;100.00;97361.88;5005789;28;20493;-49
2022/06/06 04:31:59;;;;;;;5.75;3.72;;;13.80;99.90;;;13.39;100.00;97335.66;5008096;28;20017;-51
2022/06/06 04:34:55;;;;;;;4.22;3.47;;;13.80;99.90;;;13.64;100.00;97367.09;5002095;28;20026;-47
2022/06/06 04:37:48;;;;;;;4.78;3.38;;;14.00;99.90;;;13.78;100.00;97346.97;5005195;28;20028;-46
2022/06/06 04:40:35;;;;;;;3.50;3.20;;;14.20;99.90;;;13.98;100.00;97351.25;5022842;28;20183;-50
2022/06/06 04:43:38;;;;;;;4.88;3.10;;;14.30;99.90;;;14.19;100.00;97351.94;5020762;28;20067;-47
2022/06/06 04:46:21;;;;;;;5.72;2.95;;;14.50;99.90;;;14.32;100.00;97355.69;5006344;28;20022;-49
2022/06/06 04:48:47;;;;;;;5.35;3.08;;;14.70;99.90;;;14.46;100.00;97366.41;5005992;28;20030;-49
2022/06/06 04:51:19;;;;;;;3.08;2.80;;;14.80;99.90;;;14.59;100.00;97371.06;5006285;28;20030;-50
2022/06/06 04:53:49;;;;;;;5.10;2.80;;;14.90;99.90;;;14.74;100.00;97375.56;5007137;28;20028;-48
2022/06/06 04:56:16;;;;;;;4.05;2.70;;;15.00;99.90;;;14.88;100.00;97380.97;5000898;28;20076;-50
2022/06/06 04:58:46;;;;;;;3.53;2.63;;;15.20;99.90;;;15.03;100.00;97373.97;5022516;28;20034;-48
2022/06/06 05:01:12;;;;;;;2.80;2.50;;;15.30;99.90;;;15.24;100.00;97379.03;5001955;28;20312;-47
2022/06/06 05:03:37;;;;;;;3.60;2.42;;;15.40;99.90;;;15.33;100.00;97367.03;5020946;28;20022;-47
2022/06/06 05:06:49;;;;;;;4.05;2.80;;;15.60;99.90;;;15.80;100.00;97369.63;5005833;28;20158;-46
2022/06/06 05:09:34;;;;;;;3.40;2.70;;;15.70;99.90;;;17.10;100.00;97377.75;5012409;28;20025;-47
2022/06/06 05:12:34;;;;;;;4.15;2.60;;;16.50;99.90;;;18.29;100.00;97371.69;5004706;28;20026;-48
2022/06/06 05:15:28;;;;;;;4.38;2.60;;;17.40;99.90;;;19.25;100.00;97379.22;5005993;28;20026;-50
2022/06/06 05:18:19;;;;;;;3.95;2.42;;;18.30;99.90;;;20.23;100.00;97393.50;5001951;28;20022;-49
2022/06/06 05:21:13;;;;;;;3.00;2.05;;;19.10;99.90;;;21.03;100.00;97393.53;5004517;28;20786;-48
2022/06/06 05:23:53;;;;;;;2.60;2.10;;;19.90;99.90;;;20.91;96.43;97397.19;5004538;28;20026;-48
2022/06/06 05:26:40;;;;;;;2.83;1.90;;;20.20;99.90;;;20.14;88.98;97395.03;5003992;28;20034;-46
2022/06/06 05:29:34;;;;;;;3.67;1.98;;;20.00;99.90;;;19.64;93.84;97403.19;5004940;28;20466;-46
2022/06/06 05:32:24;;;;;;;2.72;2.00;;;19.60;99.90;;;19.26;100.00;97398.81;5005923;28;20072;-49
2022/06/06 05:35:08;;;;;;;3.47;2.05;;;19.30;99.90;;;18.93;100.00;97402.06;5016727;28;20033;-47
2022/06/06 05:38:01;;;;;;;2.80;2.00;;;19.10;99.90;;;18.67;100.00;97408.25;5004195;28;20132;-51
2022/06/06 05:40:40;;;;;;;3.28;2.08;;;18.90;99.90;;;18.38;100.00;97406.75;5006583;28;20044;-51
2022/06/06 05:43:30;;;;;;;2.97;1.88;;;18.70;99.90;;;18.21;100.00;97405.22;5004971;28;20116;-47
2022/06/06 05:46:35;;;;;;;3.78;1.70;;;18.50;99.90;;;18.19;100.00;97409.81;5020629;28;20022;-50
2022/06/06 05:49:21;;;;;;;2.42;1.90;;;18.40;99.90;;;18.19;100.00;97409.81;5003962;28;20076;-48
2022/06/06 05:51:55;;;;;;;2.22;2.03;;;18.40;99.90;;;18.25;100.00;97414.72;5003387;28;20113;-47
2022/06/06 05:55:08;;;;;;;2.75;2.30;;;18.40;99.90;;;18.41;100.00;97407.38;5005878;28;20033;-48
2022/06/06 05:57:58;;;;;;;2.88;2.20;;;18.50;99.90;;;18.74;100.00;97413.19;5003846;28;20026;-51
2022/06/06 06:00:41;;;;;;;2.22;1.90;;;18.80;99.90;;;18.97;100.00;97416.91;5004837;28;20117;-48
2022/06/06 06:03:50;;;;;;;2.03;1.83;;;19.10;99.90;;;19.13;100.00;97409.53;5005991;28;20463;-49
2022/06/06 06:06:38;;;;;;;2.45;2.03;;;19.30;99.90;;;19.29;100.00;97405.75;5002016;28;20120;-49
2022/06/06 06:09:36;;;;;;;4.28;2.42;;;19.50;99.90;;;19.46;100.00;97413.41;5018761;28;20109;-51
2022/06/06 06:12:39;;;;;;;2.20;2.00;;;19.70;99.90;;;19.62;100.00;97421.16;5004192;28;20026;-50
2022/06/06 06:15:36;;;;;;;3.53;2.13;;;19.80;99.90;;;19.73;100.00;97425.72;5005684;28;20034;-49
2022/06/06 06:18:29;;;;;;;2.67;2.45;;;19.90;99.90;;;19.88;100.00;97426.44;5006384;28;20018;-47
2022/06/06 06:21:14;;;;;;;4.30;2.20;;;20.10;99.90;;;19.88;97.94;97427.28;5001247;28;20049;-47
2022/06/06 06:23:48;;;;;;;6.22;2.45;;;20.10;99.90;;;19.81;94.05;97428.69;5003097;28;20030;-48
2022/06/06 06:26:14;;;;;;;3.83;1.98;;;20.00;99.90;;;19.78;94.91;97426.28;5001496;28;20033;-47
2022/06/06 06:28:42;;;;;;;2.47;2.20;;;19.90;99.90;;;19.69;95.98;97427.78;5004899;28;20040;-48
2022/06/06 06:31:50;;;;;;;2.80;2.38;;;19.90;99.90;;;19.65;96.50;97431.66;5004681;28;20029;-51
2022/06/06 06:34:34;;;;;;;2.58;2.38;;;19.80;99.90;;;19.66;97.14;97430.66;5006735;28;20058;-49
2022/06/06 06:37:27;;;;;;;2.88;2.45;;;19.80;99.90;;;19.62;94.66;97437.22;5022854;28;20030;-48
2022/06/06 06:40:36;;;;;;;2.30;2.10;;;19.80;99.90;;;19.61;96.73;97444.41;5009391;28;20021;-50
2022/06/06 06:43:37;;;;;;;4.72;2.28;;;19.80;99.90;;;19.71;95.66;97451.75;5000891;28;20026;-46
2022/06/06 06:46:13;;;;;;;3.42;2.33;;;19.80;99.90;;;19.77;94.76;97456.66;5005667;28;20030;-49
2022/06/06 06:48:45;;;;;;;3.88;2.20;;;19.90;99.90;;;19.91;94.70;97458.34;5013478;28;20486;-49
2022/06/06 06:52:01;;;;;;;5.68;2.50;;;20.00;99.90;;;20.00;90.54;97463.84;5009186;28;20437;-48
2022/06/06 06:54:39;;;;;;;2.60;2.40;;;20.10;99.90;;;20.08;90.50;97465.09;5004993;28;20040;-47
2022/06/06 06:57:24;;;;;;;2.55;2.30;;;20.20;99.90;;;20.28;90.40;97469.81;5006230;28;20029;-50
2022/06/06 07:00:14;;;;;;;3.63;2.47;;;20.40;99.90;;;20.49;90.78;97471.84;5006226;28;20029;-51
2022/06/06 07:08:32;;;;;;;3.53;2.60;;;20.90;99.90;;;20.85;82.77;97468.16;5009069;28;20037;-47
2022/06/06 07:09:41;;;;;;;3.88;2.38;;;21.20;99.90;;;20.64;84.84;97468.03;5004501;28;20056;-46
2022/06/06 07:12:38;;;;;;;4.15;2.50;;;20.90;99.90;;;20.45;81.34;97467.69;5025109;28;20068;-46
2022/06/06 07:15:21;;;;;;;3.92;2.53;;;20.70;99.90;;;20.33;83.64;97462.31;5007107;28;20222;-48
2022/06/06 07:17:55;;;;;;;3.42;2.50;;;20.60;99.90;;;20.45;85.86;97467.69;5011337;28;20040;-45
2022/06/06 07:20:21;;;;;;;3.00;2.53;;;20.70;99.90;;;20.36;79.02;97458.53;5007700;28;20030;-48
2022/06/06 07:23:03;;;;;;;3.45;2.40;;;20.70;99.90;;;20.32;81.44;97460.59;5023828;28;20052;-49
2022/06/06 07:25:33;;;;;;;3.95;2.30;;;20.70;99.90;;;20.43;82.40;97464.28;5007921;28;20199;-44
2022/06/06 07:27:59;;;;;;;5.40;4.10;;;20.60;99.90;;;20.55;83.27;97452.63;5008258;28;20882;-45
2022/06/06 07:30:30;;;;;;;3.50;2.72;;;20.70;99.90;;;20.64;84.72;97449.28;5007433;28;20032;-48
2022/06/06 07:33:08;;;;;;;3.70;2.28;;;21.00;99.90;;;20.78;78.64;97454.41;5022113;28;20127;-45
2022/06/06 07:35:58;;;;;;;4.63;2.40;;;21.10;99.90;;;20.93;80.01;97452.34;5007960;28;20029;-48
2022/06/06 07:39:05;;;;;;;3.10;2.30;;;21.20;99.90;;;21.11;81.62;97450.06;5007997;28;20294;-47
2022/06/06 07:41:57;;;;;;;4.68;2.50;;;21.30;99.90;;;21.45;79.71;97451.88;5007044;28;20141;-47
2022/06/06 07:44:37;;;;;;;2.90;2.10;;;21.60;99.90;;;21.57;73.69;97450.06;5007505;28;20486;-45
2022/06/06 07:47:28;;;;;;;3.50;2.30;;;21.80;99.90;;;21.67;70.43;97453.72;5000849;28;20296;-47
2022/06/06 07:50:14;;;;;;;2.53;2.13;;;22.00;99.90;;;21.60;70.93;97439.09;5006865;28;20049;-46
2022/06/06 07:52:57;;;;;;;5.53;2.60;;;22.00;99.90;;;21.45;71.10;97446.53;5008356;28;20033;-49
2022/06/06 07:55:31;;;;;;;6.45;2.15;;;21.90;99.90;;;21.49;71.37;97446.16;5005307;28;20049;-45
2022/06/06 07:58:24;;;;;;;5.03;2.47;;;21.90;99.90;;;21.61;72.42;97430.06;5007362;28;20088;-48
2022/06/06 08:01:10;;;;;;;3.13;2.35;;;21.90;99.90;;;21.71;70.25;97415.78;5022830;28;20486;-47
2022/06/06 08:03:52;;;;;;;6.68;2.40;;;22.10;99.90;;;21.84;70.42;97437.09;5002165;28;20034;-48
2022/06/06 08:07:19;;;;;;;3.83;2.30;;;22.20;99.90;;;21.96;75.31;97429.84;5000915;28;20044;-47
2022/06/06 08:10:38;;;;;;;3.45;1.80;;;22.40;99.90;;;21.97;68.56;97428.03;5004862;28;20077;-48
2022/06/06 08:13:24;;;;;;;4.32;2.40;;;22.40;99.90;;;21.91;67.70;97430.22;5009073;28;20080;-47
2022/06/06 08:16:01;;;;;;;3.10;2.10;;;22.30;99.90;;;22.13;69.63;97425.75;5023890;28;20504;-48
2022/06/06 08:19:01;;;;;;;4.43;2.25;;;22.40;99.90;;;22.18;64.43;97425.34;5006484;28;20444;-48
2022/06/06 08:21:43;;;;;;;3.80;2.17;;;22.60;99.90;;;22.21;66.23;97427.78;5004353;28;20129;-48
2022/06/06 08:24:38;;;;;;;3.30;2.20;;;22.50;99.90;;;22.22;62.82;97422.31;5002713;28;20033;-45
2022/06/06 08:27:10;;;;;;;3.17;1.92;;;22.60;99.90;;;22.28;64.96;97415.59;5007185;28;20030;-47
2022/06/06 08:29:40;;;;;;;2.42;1.83;;;22.60;99.90;;;22.45;62.85;97423.06;5007469;28;20030;-45
2022/06/06 08:32:07;;;;;;;3.40;2.20;;;22.80;99.90;;;22.57;63.30;97415.78;5007383;28;20053;-47
2022/06/06 08:34:33;;;;;;;3.25;1.65;;;22.90;99.90;;;22.66;62.30;97412.31;5007440;28;20514;-45
2022/06/06 08:37:43;;;;;;;3.92;1.92;;;23.00;99.90;;;22.46;60.72;97427.44;5007495;28;20030;-47
2022/06/06 08:40:58;;;;;;;2.65;2.00;;;22.90;99.90;;;22.49;67.63;97418.28;5004829;28;20088;-45
2022/06/06 08:43:58;;;;;;;2.42;1.80;;;22.80;99.90;;;22.33;63.78;97431.34;5003175;28;20049;-46
2022/06/06 08:47:00;;;;;;;2.88;1.92;;;22.80;99.90;;;22.40;60.00;97419.09;5002111;28;20344;-48
2022/06/06 08:53:00;;;;;;;2.80;1.70;;;22.80;99.90;;;22.55;57.55;97416.91;5004694;28;20620;-45
2022/06/06 08:55:41;;;;;;;3.53;1.80;;;22.90;99.90;;;22.71;54.76;97411.06;5004095;28;20038;-49
2022/06/06 08:58:43;;;;;;;3.63;1.70;;;23.10;99.90;;;22.88;54.04;97414.00;4999492;28;20032;-47
2022/06/06 09:01:39;;;;;;;2.28;1.70;;;23.30;99.90;;;23.23;53.16;97409.22;5004842;28;20029;-45
2022/06/06 09:04:42;;;;;;;2.55;1.67;;;23.60;99.40;;;23.31;52.10;97405.84;5003342;28;20285;-47
2022/06/06 09:07:23;;;;;;;2.60;1.70;;;23.70;97.90;;;23.49;52.21;97411.44;5003727;28;20045;-49
2022/06/06 09:13:07;;;;;;;3.67;1.67;;;24.00;96.80;;;23.74;49.40;97410.94;5022538;28;20238;-35
2022/06/06 09:16:06;;;;;;;2.40;1.73;;;24.10;96.60;;;23.68;48.77;97398.03;5026673;28;20025;-36
2022/06/06 09:18:47;;;;;;;2.53;1.70;;;24.10;95.10;;;23.75;50.42;97396.47;5002846;28;20068;-36
2022/06/06 09:21:54;;;;;;;1.90;1.40;;;24.00;96.30;;;23.47;50.68;97398.09;5007925;28;20088;-36
2022/06/06 09:24:53;;;;;;;1.60;1.50;;;23.80;97.00;;;23.18;50.86;97400.72;5013729;28;20497;-36
2022/06/06 09:28:05;;;;;;;3.10;1.60;;;23.50;96.60;;;22.90;52.06;97397.75;5018017;28;20037;-36
2022/06/06 09:31:12;;;;;;;3.72;1.67;;;23.20;96.40;;;22.94;52.48;97399.16;5014093;28;20103;-36
2022/06/06 09:34:46;;;;;;;4.78;1.90;;;23.10;97.40;;;23.09;51.74;97388.09;5019769;28;20021;-36
2022/06/06 09:37:37;;;;;;;4.07;2.35;;;23.20;97.30;;;23.00;51.40;97392.41;4951602;28;20551;-36
2022/06/06 09:40:17;;;;;;;5.03;1.60;;;23.20;96.60;;;22.97;54.70;97384.59;5019249;28;20028;-36
2022/06/06 09:43:00;;;;;;;4.68;1.55;;;23.20;95.90;;;22.73;52.54;97379.53;5023704;28;20024;-36
2022/06/06 09:45:47;;;;;;;2.53;1.70;;;23.00;96.70;;;22.35;52.66;97383.69;5003926;28;20453;-36
2022/06/06 09:49:01;;;;;;;1.58;1.40;;;22.70;96.30;;;22.24;52.87;97392.63;5044946;28;20468;-35
2022/06/06 09:51:51;;;;;;;2.45;1.70;;;22.50;96.80;;;22.30;55.78;97395.66;5013008;28;20128;-36
2022/06/06 10:01:33;;;;;;;3.10;1.50;;;22.80;94.90;;;22.57;53.33;97383.53;5012698;28;20467;-36
2022/06/06 10:04:48;;;;;;;4.57;1.67;;;22.90;96.60;;;22.93;50.44;97381.31;5022462;28;20382;-36
2022/06/06 10:07:50;;;;;;;2.28;1.58;;;23.30;95.40;;;23.29;50.94;97380.94;5003691;28;20022;-36
2022/06/06 10:10:58;;;;;;;3.10;1.92;;;23.60;95.80;;;23.61;49.61;97376.19;5042403;28;20032;-36
2022/06/06 10:13:53;;;;;;;2.53;1.50;;;23.90;94.50;;;23.78;47.21;97384.59;5025870;28;20039;-36
2022/06/06 10:16:38;;;;;;;2.30;1.38;;;24.20;92.50;;;23.89;45.62;97375.56;5004212;28;20234;-36
2022/06/06 10:19:35;;;;;;;1.48;1.38;;;24.20;92.10;;;23.49;44.56;97373.75;5024430;28;20021;-36
2022/06/06 10:22:28;;;;;;;1.48;1.30;;;24.10;90.40;;;23.46;45.19;97371.38;5025479;28;20029;-36
2022/06/06 10:25:19;;;;;;;4.90;1.30;;;23.80;90.50;;;23.13;46.61;97370.69;5023485;28;20029;-36
2022/06/06 10:28:33;;;;;;;4.47;1.48;;;23.50;91.60;;;22.68;48.13;97367.34;5008109;28;20044;-36
2022/06/06 10:31:39;;;;;;;2.50;1.58;;;23.10;91.80;;;22.45;49.96;97365.78;5023585;28;20056;-36
2022/06/06 10:34:30;;;;;;;3.45;1.55;;;22.80;93.60;;;22.13;50.70;97358.63;5026991;28;20025;-36
2022/06/06 10:37:29;;;;;;;1.70;1.50;;;22.60;93.80;;;22.17;53.03;97361.91;5027919;28;20506;-36
2022/06/06 10:40:30;;;;;;;4.70;1.40;;;22.40;95.10;;;22.30;53.88;97360.72;5020929;28;20037;-36
2022/06/06 10:43:30;;;;;;;1.85;1.52;;;22.50;95.60;;;22.71;54.35;97351.94;5026843;28;20021;-36
2022/06/06 10:46:10;;;;;;;2.03;1.38;;;22.90;95.80;;;23.16;50.48;97348.91;5023147;28;20096;-36
2022/06/06 10:49:07;;;;;;;3.08;1.30;;;23.30;94.90;;;23.54;48.56;97358.03;5005655;28;20322;-36
2022/06/06 10:52:09;;;;;;;3.17;1.52;;;23.80;93.30;;;23.63;47.96;97346.44;5005240;28;20113;-37
2022/06/06 10:55:14;;;;;;;2.72;1.55;;;24.00;92.20;;;23.74;45.77;97340.94;5027262;28;20022;-36
2022/06/06 10:58:10;;;;;;;2.53;1.38;;;23.90;90.70;;;23.43;45.17;97354.47;5022676;28;20029;-36
2022/06/06 11:01:17;;;;;;;1.80;1.40;;;23.80;90.30;;;23.57;44.13;97341.63;5043731;28;20208;-36
2022/06/06 11:04:40;;;;;;;3.13;1.38;;;23.80;90.20;;;23.70;45.70;97339.50;5024948;28;20048;-36
2022/06/06 11:08:10;;;;;;;2.50;1.25;;;24.10;90.10;;;23.58;45.27;97337.94;5010501;28;20026;-36
2022/06/06 11:10:47;;;;;;;2.58;1.50;;;23.90;89.30;;;23.52;45.36;97342.03;5009846;28;20029;-36
2022/06/06 11:13:27;;;;;;;2.03;1.23;;;23.90;89.70;;;23.49;45.18;97330.69;5020198;28;20022;-36
2022/06/06 11:16:45;;;;;;;2.78;1.40;;;23.90;88.90;;;23.67;45.23;97331.72;5025459;28;20033;-36
2022/06/06 11:19:31;;;;;;;2.20;1.50;;;24.00;89.00;;;23.96;44.55;97331.75;5020588;28;20025;-36
2022/06/06 11:22:32;;;;;;;4.03;1.50;;;24.20;89.00;;;24.18;46.14;97324.38;5020679;28;20022;-36
2022/06/06 11:25:08;;;;;;;1.58;1.30;;;24.40;90.80;;;24.42;44.94;97334.66;5023296;28;20026;-36
2022/06/06 11:27:57;;;;;;;2.72;1.58;;;24.60;89.10;;;24.50;43.86;97329.41;5007025;28;20022;-36
2022/06/06 11:31:01;;;;;;;1.85;1.33;;;24.80;87.00;;;24.49;44.94;97335.78;5020738;28;20083;-36
2022/06/06 11:34:03;;;;;;;2.00;1.40;;;24.80;88.00;;;24.19;44.17;97326.03;5025202;28;20049;-36
2022/06/06 11:37:12;;;;;;;1.92;1.30;;;24.60;85.80;;;23.81;43.56;97312.50;5024580;28;20048;-36
2022/06/06 11:40:09;;;;;;;1.98;1.10;;;24.30;86.30;;;23.77;44.91;97313.72;5011155;28;20091;-36
2022/06/06 11:43:12;;;;;;;3.40;1.45;;;24.10;88.00;;;23.85;44.53;97313.06;5020094;28;20030;-36
2022/06/06 11:46:13;;;;;;;1.50;1.40;;;24.20;86.40;;;24.25;45.00;97314.72;5019038;28;20021;-36
2022/06/06 11:49:18;;;;;;;1.88;1.50;;;24.50;88.80;;;24.55;42.98;97316.38;4988232;28;20513;-37
2022/06/06 11:52:16;;;;;;;1.73;1.40;;;24.80;85.40;;;24.44;43.29;97313.81;5026141;28;20499;-37
2022/06/06 11:55:09;;;;;;;1.60;1.35;;;24.80;83.80;;;24.38;43.13;97314.41;5009990;28;20141;-36
2022/06/06 11:58:18;;;;;;;2.13;1.45;;;24.70;85.30;;;24.19;44.69;97316.16;5026214;28;20034;-36
2022/06/06 12:01:49;;;;;;;1.98;1.20;;;24.40;86.60;;;23.78;44.17;97306.50;5007124;28;20056;-36
2022/06/06 12:04:50;;;;;;;2.30;1.85;;;24.10;84.80;;;23.38;44.34;97313.69;5014803;28;20041;-36
2022/06/06 12:08:05;;;;;;;5.57;1.50;;;23.70;84.40;;;23.18;45.09;97309.25;5009936;28;20029;-36